Time;durP1;ratioP1;P1;durP2;ratioP2;P2;SDS_P1;SDS_P2;PMS_P1;PMS_P2;Temp;Humidity;BMP_temperature;BMP_pressure;BME280_temperature;BME280_humidity;BME280_pressure;Samples;Min_cycle;Max_cycle;Signal;HPM_P1;HPM_P2
2024/01/23 09:49:05;;;;;;;15.23;2.50;;;;;;;8.00;93.30;100035.44;5124551;27;20528;-90
2024/01/23 09:51:42;;;;;;;9.87;1.87;;;;;;;8.82;85.23;100059.00;5073404;28;39146;-87
2024/01/23 09:54:15;;;;;;;6.83;1.67;;;;;;;9.45;82.24;100081.31;5073130;28;41658;-89
2024/01/23 09:56:45;;;;;;;5.43;1.37;;;;;;;10.06;77.39;100086.81;5073274;28;41876;-88
2024/01/23 09:59:12;;;;;;;3.63;1.80;;;;;;;10.60;73.63;100106.69;5073014;28;41050;-87
2024/01/23 10:01:40;;;;;;;5.80;1.50;;;;;;;11.16;69.47;100109.47;5090194;28;40355;-89
2024/01/23 10:04:19;;;;;;;5.43;1.53;;;;;;;11.56;66.23;100126.25;5073181;28;41217;-88
2024/01/23 10:06:47;;;;;;;3.97;1.43;;;;;;;11.81;64.11;100130.38;5072886;28;41650;-87
2024/01/23 10:09:15;;;;;;;4.53;1.40;;;;;;;12.06;63.08;100131.84;5073120;28;42413;-88
2024/01/23 10:11:46;;;;;;;7.20;1.70;;;;;;;11.88;62.20;100133.56;5073042;28;39948;-88
2024/01/23 10:14:19;;;;;;;7.43;1.73;;;;;;;11.50;62.25;100092.88;5076254;28;41630;-87
2024/01/23 10:16:51;;;;;;;6.43;1.67;;;;;;;11.66;60.95;100080.63;5076513;28;41591;-89
2024/01/23 10:19:25;;;;;;;5.50;1.73;;;;;;;12.10;60.39;100105.09;5077516;28;43488;-89
2024/01/23 10:21:54;;;;;;;6.00;1.60;;;;;;;12.49;58.22;100083.63;5077936;28;38938;-87
2024/01/23 10:24:30;;;;;;;4.53;1.63;;;;;;;13.11;56.23;100076.81;5077990;28;40961;-91
2024/01/23 10:27:03;;;;;;;5.17;1.53;;;;;;;13.64;53.71;100129.00;5072558;28;43431;-90
2024/01/23 10:29:31;;;;;;;3.80;1.60;;;;;;;14.19;52.36;100157.91;5072706;28;42716;-88
2024/01/23 10:37:46;;;;;;;6.13;1.43;;;;;;;15.07;49.14;100174.94;5096790;27;43768;-91
2024/01/23 10:40:23;;;;;;;3.50;1.43;;;;;;;14.34;49.12;100101.88;5134405;27;41917;-90
2024/01/23 10:43:05;;;;;;;6.13;1.70;;;;;;;16.19;47.41;100119.88;5117243;27;39901;-91
2024/01/23 10:48:21;;;;;;;3.63;1.50;;;;;;;16.71;45.34;100173.47;5131976;27;42126;-88
2024/01/23 10:51:11;;;;;;;5.53;1.70;;;;;;;16.64;44.54;100183.72;5133492;27;42140;-88
2024/01/23 11:08:57;;;;;;;4.03;1.43;;;;;;;15.59;43.86;100157.56;5133783;27;40630;-89
2024/01/23 11:14:53;;;;;;;7.23;1.87;;;;;;;19.86;38.50;100155.63;5059356;28;41908;-90
2024/01/23 11:17:23;;;;;;;4.37;1.60;;;;;;;19.28;38.28;100211.22;5061026;28;42289;-92
2024/01/23 11:20:17;;;;;;;5.37;1.77;;;;;;;18.20;39.32;100185.28;5061466;28;40394;-91
2024/01/23 11:22:45;;;;;;;4.97;1.43;;;;;;;17.59;40.59;100196.81;5060886;28;41724;-89
2024/01/23 11:25:21;;;;;;;6.40;2.10;;;;;;;17.14;41.86;100195.53;5059499;28;41840;-90
2024/01/23 11:28:26;;;;;;;5.20;1.30;;;;;;;16.42;42.67;100197.63;5058714;28;42417;-90
2024/01/23 11:31:13;;;;;;;4.03;1.40;;;;;;;15.38;43.55;100128.53;5058800;28;39021;-89
2024/01/23 11:33:45;;;;;;;5.17;1.30;;;;;;;15.50;44.38;100192.81;5116011;27;40906;-90
2024/01/23 11:36:16;;;;;;;4.27;1.40;;;;;;;16.11;43.97;100187.19;5117372;27;44430;-88
2024/01/23 11:41:39;;;;;;;5.57;1.90;;;;;;;18.01;39.69;100202.84;5117325;27;39438;-90
2024/01/23 11:44:41;;;;;;;4.00;1.50;;;;;;;17.84;40.13;100220.09;5100413;27;42612;-91
2024/01/23 11:47:14;;;;;;;5.93;1.60;;;;;;;16.79;40.95;100155.94;5117569;27;43326;-89
2024/01/23 11:49:57;;;;;;;5.30;1.70;;;;;;;15.85;42.28;100135.41;5117294;27;42584;-90
2024/01/23 11:52:43;;;;;;;4.93;1.13;;;;;;;15.66;43.48;100145.56;5116903;27;39055;-90
2024/01/23 11:55:30;;;;;;;4.07;1.53;;;;;;;16.42;42.97;100120.09;5117288;27;40709;-91
2024/01/23 11:58:11;;;;;;;5.13;1.40;;;;;;;16.65;42.26;100190.78;5116646;27;42613;-90
2024/01/23 12:00:39;;;;;;;3.87;1.47;;;;;;;15.73;43.35;100174.44;5116885;27;42932;-88
2024/01/23 12:03:30;;;;;;;3.57;1.63;;;;;;;15.17;44.14;100158.38;5117058;27;39315;-87
2024/01/23 12:05:58;;;;;;;7.03;1.50;;;;;;;14.98;45.34;100179.94;5116563;27;41608;-88
2024/01/23 12:08:31;;;;;;;3.67;1.07;;;;;;;15.06;45.80;100180.38;5115298;27;41954;-89
2024/01/23 12:11:09;;;;;;;6.57;1.77;;;;;;;14.68;46.10;100183.47;5115104;27;41753;-90
2024/01/23 12:13:47;;;;;;;4.73;1.37;;;;;;;14.28;46.31;100178.69;5116719;27;39449;-88
2024/01/23 12:17:07;;;;;;;6.23;1.43;;;;;;;14.48;46.61;100170.44;5116000;27;42254;-87
2024/01/23 12:19:44;;;;;;;4.17;1.60;;;;;;;14.50;46.42;100183.66;5116446;27;43219;-90
2024/01/23 12:22:16;;;;;;;5.73;1.70;;;;;;;16.71;43.55;100160.94;5116448;27;41612;-90
2024/01/23 12:24:51;;;;;;;4.20;1.90;;;;;;;19.58;38.45;100227.69;5116416;27;40158;-90
2024/01/23 12:27:25;;;;;;;3.13;1.50;;;;;;;21.77;35.75;100179.81;5099346;27;40994;-91
2024/01/23 12:29:59;;;;;;;4.60;1.50;;;;;;;24.19;32.16;100205.94;5115605;27;43645;-89
2024/01/23 12:33:28;;;;;;;4.57;1.50;;;;;;;24.64;29.72;100264.72;5116412;27;42515;-88
2024/01/23 12:36:07;;;;;;;4.67;1.90;;;;;;;23.23;30.54;100188.13;5116441;27;39931;-89
2024/01/23 12:38:42;;;;;;;3.50;1.50;;;;;;;23.60;30.87;100231.50;5116131;27;41017;-93
2024/01/23 12:41:20;;;;;;;3.70;1.53;;;;;;;23.30;30.48;100177.56;5116131;27;42079;-90
2024/01/23 12:51:01;;;;;;;3.17;1.77;;;;;;;27.35;26.91;100228.91;5115730;27;41331;-91
2024/01/23 12:53:32;;;;;;;6.53;2.00;;;;;;;28.06;25.95;100228.19;5115670;27;41992;-92
2024/01/23 13:00:46;;;;;;;3.27;1.73;;;;;;;26.29;27.59;100186.22;5134114;27;41458;-90
2024/01/23 13:04:24;;;;;;;3.40;1.57;;;;;;;26.62;28.06;100228.78;5115450;27;41748;-90
2024/01/23 13:07:16;;;;;;;6.53;2.30;;;;;;;26.10;27.18;100209.88;5115284;27;42180;-89
2024/01/23 13:09:57;;;;;;;4.90;1.83;;;;;;;24.49;27.61;100163.28;5114210;27;41972;-90
2024/01/23 13:12:30;;;;;;;6.03;1.60;;;;;;;23.36;28.23;100170.72;5115432;27;40419;-88
2024/01/23 13:15:15;;;;;;;6.83;1.57;;;;;;;22.90;29.69;100212.84;5114628;27;41265;-89
2024/01/23 13:22:11;;;;;;;4.00;1.47;;;;;;;20.63;32.92;100175.31;5131286;27;42209;-87
2024/01/23 13:24:38;;;;;;;4.07;1.40;;;;;;;19.27;33.99;100150.41;5114188;27;38848;-88
2024/01/23 13:27:31;;;;;;;5.10;1.33;;;;;;;18.03;35.83;100145.47;5115205;27;40917;-87
2024/01/23 13:33:03;;;;;;;5.57;1.43;;;;;;;15.96;38.48;100103.50;5110782;27;41349;-88
2024/01/23 13:41:57;;;;;;;6.83;1.70;;;;;;;14.92;41.63;100121.63;5114436;27;41924;-91
2024/01/23 13:44:59;;;;;;;4.63;1.40;;;;;;;14.63;41.98;100116.22;5114175;27;41843;-89
2024/01/23 13:50:56;;;;;;;6.77;1.90;;;;;;;13.87;44.33;100088.63;5056374;28;41330;-86
2024/01/23 13:53:23;;;;;;;4.73;1.83;;;;;;;13.20;45.06;100025.84;5056575;28;43623;-90
2024/01/23 13:55:59;;;;;;;4.03;1.57;;;;;;;13.14;45.95;100063.41;5055995;28;42605;-90
2024/01/23 14:02:11;;;;;;;5.00;1.63;;;;;;;12.80;47.05;100029.75;5057172;28;41402;-89
2024/01/23 14:04:41;;;;;;;3.57;1.83;;;;;;;12.66;47.48;100031.41;5040165;28;43327;-92
2024/01/23 14:07:25;;;;;;;3.53;1.63;;;;;;;12.64;47.79;100043.91;5056737;28;42908;-92
2024/01/23 14:09:54;;;;;;;4.20;1.50;;;;;;;12.71;48.28;100075.44;5108010;27;40398;-89
2024/01/23 14:15:05;;;;;;;7.73;1.80;;;;;;;12.49;49.32;100070.34;5114806;27;41786;-90
2024/01/23 14:17:38;;;;;;;5.90;1.70;;;;;;;12.03;49.83;100020.47;5116104;27;40899;-88
2024/01/23 14:20:11;;;;;;;6.50;2.00;;;;;;;11.97;50.55;100026.97;5115376;27;38993;-90
2024/01/23 14:22:47;;;;;;;6.37;1.90;;;;;;;11.77;50.34;100013.78;5114903;27;42093;-91
2024/01/23 14:25:19;;;;;;;4.63;1.80;;;;;;;11.69;50.88;100019.44;5114954;27;41819;-92
2024/01/23 14:27:52;;;;;;;6.07;2.00;;;;;;;12.04;51.02;100093.88;5114610;27;41697;-90
2024/01/23 14:30:20;;;;;;;2.83;1.60;;;;;;;11.67;51.74;100050.50;5114621;27;39475;-87
2024/01/23 14:32:49;;;;;;;3.80;1.93;;;;;;;11.87;51.68;100100.84;5114582;27;40769;-89
2024/01/23 14:35:19;;;;;;;8.07;2.30;;;;;;;11.60;52.25;100075.63;5117640;27;42990;-90
2024/01/23 14:37:47;;;;;;;5.00;1.90;;;;;;;11.50;52.93;100091.09;5117547;27;42617;-89
2024/01/23 14:40:18;;;;;;;4.67;1.57;;;;;;;11.36;53.24;100082.06;5118510;27;38870;-89
2024/01/23 14:42:51;;;;;;;5.67;1.80;;;;;;;11.36;53.44;100088.25;5118241;27;40870;-89
2024/01/23 14:45:32;;;;;;;5.47;2.10;;;;;;;11.14;53.67;100069.78;5118659;27;43431;-90
2024/01/23 14:48:01;;;;;;;5.87;2.30;;;;;;;11.25;54.49;100089.66;5118149;27;41305;-89
2024/01/23 14:50:28;;;;;;;7.07;2.23;;;;;;;11.19;54.40;100098.75;5118292;27;40139;-88
2024/01/23 14:52:56;;;;;;;7.90;2.50;;;;;;;11.21;54.54;100103.97;5118222;27;42330;-89
2024/01/23 14:55:30;;;;;;;8.33;2.73;;;;;;;11.15;54.49;100113.94;5117988;27;41690;-90
2024/01/23 14:57:58;;;;;;;6.83;1.93;;;;;;;10.92;54.87;100084.94;5117992;27;42467;-87
2024/01/23 15:00:26;;;;;;;5.73;1.63;;;;;;;10.94;55.56;100112.22;5117932;27;40172;-90
2024/01/23 15:02:53;;;;;;;4.10;1.70;;;;;;;10.85;55.59;100094.09;5118021;27;41047;-90
2024/01/23 15:05:28;;;;;;;3.23;1.43;;;;;;;10.80;55.76;100101.38;5118060;27;43195;-89
2024/01/23 15:07:58;;;;;;;7.30;2.27;;;;;;;10.56;56.17;100057.41;5118053;27;42613;-89
2024/01/23 15:10:26;;;;;;;7.07;2.07;;;;;;;10.74;56.53;100089.25;5117652;27;38888;-87
2024/01/23 15:12:58;;;;;;;6.30;1.93;;;;;;;10.80;57.08;100109.31;5117943;27;43914;-88
2024/01/23 15:15:46;;;;;;;4.33;1.90;;;;;;;10.43;57.50;100057.06;5117730;27;42965;-89
2024/01/23 15:18:15;;;;;;;6.33;1.60;;;;;;;10.60;57.25;100091.66;5117572;27;41073;-90
2024/01/23 15:20:47;;;;;;;4.60;1.77;;;;;;;10.73;57.51;100124.63;5117690;27;40216;-90
2024/01/23 15:23:20;;;;;;;4.83;1.73;;;;;;;10.44;57.96;100080.84;5117267;27;41513;-90
2024/01/23 15:25:48;;;;;;;6.30;1.57;;;;;;;10.54;58.21;100112.22;5117630;27;41738;-90
2024/01/23 15:28:31;;;;;;;5.57;1.67;;;;;;;10.37;58.29;100094.41;5114231;27;41573;-90
2024/01/23 15:31:01;;;;;;;2.57;1.50;;;;;;;10.37;59.00;100100.56;5117669;27;38730;-89
2024/01/23 15:33:32;;;;;;;5.73;1.93;;;;;;;10.44;59.39;100114.41;5117408;27;42409;-88
2024/01/23 15:36:08;;;;;;;7.07;2.03;;;;;;;10.25;60.25;100097.56;5117574;27;42498;-90
2024/01/23 15:38:38;;;;;;;6.50;1.87;;;;;;;10.18;60.04;100098.69;5117385;27;41654;-89
2024/01/23 15:41:07;;;;;;;4.73;1.57;;;;;;;10.13;60.46;100101.56;5117371;27;38956;-89
2024/01/23 15:43:40;;;;;;;3.97;1.57;;;;;;;10.14;60.98;100108.53;5117563;27;41067;-89
2024/01/23 15:46:18;;;;;;;4.90;1.73;;;;;;;10.09;61.44;100111.41;5117243;27;43910;-90
2024/01/23 15:48:47;;;;;;;3.47;1.53;;;;;;;9.83;62.45;100090.41;5117355;27;41287;-89
2024/01/23 15:51:16;;;;;;;5.67;2.23;;;;;;;9.75;62.56;100067.81;5116741;27;39141;-89
2024/01/23 15:53:43;;;;;;;7.30;2.10;;;;;;;9.58;63.56;100048.19;5117158;27;41219;-89
2024/01/23 15:56:13;;;;;;;9.00;1.77;;;;;;;9.83;63.69;100087.75;5117048;27;43480;-89
2024/01/23 15:58:44;;;;;;;7.23;2.20;;;;;;;9.79;64.16;100085.28;5100534;27;42738;-90
2024/01/23 16:01:11;;;;;;;6.80;1.87;;;;;;;9.71;65.09;100091.75;5117432;27;39189;-88
2024/01/23 16:03:40;;;;;;;6.50;2.50;;;;;;;9.45;64.80;100049.59;5117056;27;40350;-91
2024/01/23 16:06:08;;;;;;;6.60;2.00;;;;;;;9.39;64.92;100026.03;5117373;27;42799;-89
2024/01/23 16:08:37;;;;;;;6.00;2.10;;;;;;;9.47;65.04;100045.09;5117384;27;41728;-89
2024/01/23 16:11:05;;;;;;;5.83;2.33;;;;;;;9.65;66.10;100072.59;5116725;27;38769;-88
2024/01/23 16:13:32;;;;;;;5.57;1.60;;;;;;;9.52;65.40;100051.06;5117096;27;40717;-89
2024/01/23 16:16:16;;;;;;;7.40;2.30;;;;;;;9.32;65.86;100008.69;5116936;27;43438;-91
2024/01/23 16:18:47;;;;;;;6.93;2.20;;;;;;;9.39;65.85;100028.69;5116889;27;41266;-89
2024/01/23 16:21:16;;;;;;;5.70;1.67;;;;;;;9.66;65.32;100084.91;5116992;27;39152;-89
2024/01/23 16:23:48;;;;;;;9.57;2.80;;;;;;;9.47;66.02;100053.03;5117310;27;40642;-89
2024/01/23 16:26:16;;;;;;;7.27;1.87;;;;;;;9.49;66.68;100053.84;5116951;27;42656;-88
2024/01/23 16:28:46;;;;;;;4.60;2.47;;;;;;;9.54;67.11;100067.72;5116048;27;41471;-89
2024/01/23 16:31:14;;;;;;;9.83;2.30;;;;;;;9.45;66.71;100059.31;5116572;27;38641;-88
2024/01/23 16:33:42;;;;;;;6.27;1.93;;;;;;;9.17;66.83;100014.53;5116808;27;40847;-88
2024/01/23 16:36:11;;;;;;;13.20;2.80;;;;;;;9.14;68.24;100022.63;5116748;27;41696;-88
2024/01/23 16:38:39;;;;;;;5.03;2.03;;;;;;;9.28;67.75;100057.28;5116388;27;41050;-88
2024/01/23 16:41:08;;;;;;;7.00;2.10;;;;;;;8.96;68.83;100009.16;5116573;27;38648;-88
2024/01/23 16:43:36;;;;;;;8.27;2.40;;;;;;;9.17;70.08;100040.97;5116653;27;40781;-88
2024/01/23 16:46:03;;;;;;;9.13;1.93;;;;;;;8.91;70.54;100008.47;5116861;27;42510;-88
2024/01/23 16:48:32;;;;;;;8.33;2.20;;;;;;;8.86;70.07;100005.16;5116298;27;41503;-88
2024/01/23 16:51:04;;;;;;;5.10;2.23;;;;;;;8.97;71.35;100036.44;5116686;27;39094;-87
2024/01/23 16:53:33;;;;;;;7.37;2.53;;;;;;;8.73;71.82;100010.94;5116445;27;43197;-88
2024/01/23 16:56:01;;;;;;;6.40;1.90;;;;;;;8.92;72.91;100044.53;5116427;27;43546;-89
2024/01/23 16:58:32;;;;;;;4.70;1.93;;;;;;;8.61;73.33;99997.28;5115800;27;42480;-87
2024/01/23 17:01:02;;;;;;;7.73;1.93;;;;;;;8.61;74.49;99988.47;5117295;27;39081;-88
2024/01/23 17:03:30;;;;;;;8.73;1.93;;;;;;;8.59;74.83;99992.94;5116054;27;41692;-88
2024/01/23 17:05:58;;;;;;;5.20;2.00;;;;;;;8.44;75.40;99975.03;5116436;27;41934;-89
2024/01/23 17:08:25;;;;;;;10.07;2.37;;;;;;;8.64;74.98;100014.78;5116220;27;41018;-89
2024/01/23 17:10:55;;;;;;;8.83;1.87;;;;;;;8.56;76.42;99998.34;5116216;27;40594;-90
2024/01/23 17:13:23;;;;;;;5.27;1.83;;;;;;;8.36;76.89;99983.22;5116835;27;40850;-90
2024/01/23 17:15:53;;;;;;;5.67;2.63;;;;;;;8.14;77.60;99943.50;5116157;27;44925;-89
2024/01/23 17:18:30;;;;;;;8.07;2.20;;;;;;;8.29;78.34;99968.47;5116149;27;43134;-90
2024/01/23 17:20:59;;;;;;;7.23;2.87;;;;;;;8.45;79.09;99995.22;5116674;27;39001;-89
2024/01/23 17:26:18;;;;;;;9.67;2.60;;;;;;;8.34;79.91;99969.22;5114938;27;41935;-89
2024/01/23 17:28:49;;;;;;;4.93;2.10;;;;;;;8.60;79.82;100010.53;5115848;27;42237;-88
2024/01/23 17:31:22;;;;;;;7.83;2.23;;;;;;;8.70;79.93;100022.47;5115785;27;40028;-90
2024/01/23 17:33:52;;;;;;;6.83;2.40;;;;;;;8.26;80.18;99937.78;5116099;27;41905;-89
2024/01/23 17:36:38;;;;;;;8.60;2.00;;;;;;;8.76;80.26;100001.13;5115292;27;43835;-86
2024/01/23 17:41:57;;;;;;;9.10;2.40;;;;;;;8.59;79.88;99974.47;5127337;27;38750;-90
2024/01/23 17:44:37;;;;;;;10.07;2.63;;;;;;;8.47;79.59;99937.97;5094920;28;41040;-90
2024/01/23 17:47:26;;;;;;;6.33;2.50;;;;;;;8.86;79.51;100006.94;5094808;28;42288;-89
2024/01/23 17:49:58;;;;;;;8.13;2.03;;;;;;;8.63;79.13;99952.31;5095198;28;42555;-89
2024/01/23 17:52:26;;;;;;;8.53;1.87;;;;;;;8.88;78.55;99979.53;5095014;28;39089;-90
2024/01/23 17:54:56;;;;;;;9.50;2.40;;;;;;;8.86;78.42;99976.09;5095168;28;40934;-91
2024/01/23 17:57:24;;;;;;;7.97;1.67;;;;;;;8.87;78.30;99977.81;5112415;27;42367;-86
2024/01/23 17:59:53;;;;;;;9.57;2.07;;;;;;;8.81;78.20;99972.75;5111956;27;42442;-88
2024/01/23 18:02:20;;;;;;;9.07;2.40;;;;;;;8.78;78.34;99972.03;5094672;28;38866;-89
2024/01/23 18:04:50;;;;;;;8.10;2.37;;;;;;;8.75;79.00;99975.63;5095062;28;41167;-88
2024/01/23 18:07:17;;;;;;;11.90;2.50;;;;;;;8.87;79.31;100006.00;5094775;28;43407;-89
2024/01/23 18:09:45;;;;;;;7.17;2.03;;;;;;;8.79;79.75;99998.34;5096393;27;41257;-88
2024/01/23 18:12:12;;;;;;;8.27;2.00;;;;;;;8.64;80.04;99981.31;5081564;28;38460;-88
2024/01/23 18:14:43;;;;;;;7.37;2.23;;;;;;;8.57;80.80;99952.53;5098056;28;41632;-90
2024/01/23 18:17:11;;;;;;;8.03;2.27;;;;;;;8.78;81.44;99998.44;5115509;27;41286;-89
2024/01/23 18:19:44;;;;;;;7.67;1.70;;;;;;;8.70;82.00;99992.56;5098167;28;41738;-89
2024/01/23 18:22:12;;;;;;;5.73;2.33;;;;;;;8.52;82.34;99986.19;5098677;28;39410;-88
2024/01/23 18:24:45;;;;;;;6.13;2.33;;;;;;;8.62;82.73;100001.63;5097918;28;42182;-90
2024/01/23 18:27:12;;;;;;;5.37;2.03;;;;;;;8.59;82.63;99999.09;5098406;28;44686;-90
2024/01/23 18:29:42;;;;;;;7.90;2.27;;;;;;;8.53;83.27;99982.63;5098153;28;42327;-90
2024/01/23 18:32:16;;;;;;;9.57;2.40;;;;;;;8.28;83.32;99938.56;5098110;28;39135;-91
2024/01/23 18:34:44;;;;;;;9.30;2.00;;;;;;;8.32;84.11;99951.69;5097988;28;41047;-90
2024/01/23 18:37:21;;;;;;;8.73;1.97;;;;;;;8.35;84.18;99956.88;5098055;28;42052;-89
2024/01/23 18:40:10;;;;;;;6.87;1.73;;;;;;;8.34;84.42;99961.28;5097559;27;42563;-91
2024/01/23 18:42:40;;;;;;;6.97;1.80;;;;;;;8.44;85.06;99967.97;5098178;28;40063;-91
2024/01/23 18:45:12;;;;;;;7.73;2.07;;;;;;;8.50;85.09;99977.44;5097780;28;40594;-90
